Time;durP1;ratioP1;P1;durP2;ratioP2;P2;SDS_P1;SDS_P2;PMS_P1;PMS_P2;Temp;Humidity;BMP_temperature;BMP_pressure;BME280_temperature;BME280_humidity;BME280_pressure;Samples;Min_cycle;Max_cycle;Signal;HPM_P1;HPM_P2
2022/06/30 00:01:54;;;;;;;;;0.33;0.33;;;;;22.01;78.56;100975.31;5100168;27;56169;-77
2022/06/30 00:04:19;;;;;;;;;0.00;0.00;;;;;21.94;79.04;100975.53;5099952;27;61935;-76
2022/06/30 00:06:45;;;;;;;;;0.00;0.00;;;;;21.84;79.32;100955.25;5099342;27;69344;-77
2022/06/30 00:09:10;;;;;;;;;1.33;0.00;;;;;21.75;79.24;100960.94;5099832;27;62981;-77
2022/06/30 00:11:36;;;;;;;;;0.00;0.00;;;;;21.66;79.05;100959.41;5099820;27;57163;-77
2022/06/30 00:14:02;;;;;;;;;0.00;0.00;;;;;21.60;79.64;100974.84;5082463;27;45516;-78
2022/06/30 00:16:27;;;;;;;;;0.00;0.00;;;;;21.56;79.54;100976.75;5078457;28;46746;-77
2022/06/30 00:18:52;;;;;;;;;0.00;0.00;;;;;21.52;80.90;100985.88;5093666;27;45324;-79
2022/06/30 00:21:18;;;;;;;;;1.33;1.00;;;;;21.48;80.57;100988.69;5090980;27;63939;-77
2022/06/30 00:23:43;;;;;;;;;1.33;0.00;;;;;21.44;80.82;100977.16;5100096;27;45423;-78
2022/06/30 00:26:08;;;;;;;;;0.00;0.00;;;;;21.43;80.47;100973.59;5099650;27;62239;-77
2022/06/30 00:28:34;;;;;;;;;0.00;0.00;;;;;21.41;80.68;100970.09;5099686;27;63860;-77
2022/06/30 00:30:59;;;;;;;;;1.00;1.00;;;;;21.41;81.32;100982.59;5099222;27;61263;-77
2022/06/30 00:33:24;;;;;;;;;1.00;1.00;;;;;21.41;81.45;100974.56;5099797;27;58586;-77
2022/06/30 00:35:50;;;;;;;;;3.00;1.00;;;;;21.39;82.17;100973.72;5099143;27;70860;-77
2022/06/30 00:38:15;;;;;;;;;1.00;1.00;;;;;21.37;82.02;100981.84;5098780;27;66675;-77
2022/06/30 00:40:43;;;;;;;;;4.00;1.00;;;;;21.35;83.08;100986.38;5099422;27;64745;-77
2022/06/30 00:43:08;;;;;;;;;2.00;1.00;;;;;21.30;84.21;100991.00;5100256;27;45593;-78
2022/06/30 00:45:47;;;;;;;;;1.00;1.00;;;;;21.25;84.24;100986.66;5098929;27;46600;-78
2022/06/30 00:48:13;;;;;;;;;1.00;0.00;;;;;21.21;84.56;100991.28;5098724;27;45388;-78
2022/06/30 00:50:39;;;;;;;;;1.00;0.00;;;;;21.16;84.91;100980.66;5078540;27;45368;-76
2022/06/30 00:53:05;;;;;;;;;1.00;1.00;;;;;21.16;85.34;100982.47;5099814;27;45329;-78
2022/06/30 00:55:32;;;;;;;;;1.00;1.00;;;;;21.13;85.22;100986.13;5099825;27;46472;-77
2022/06/30 00:58:00;;;;;;;;;1.00;1.00;;;;;21.13;85.10;100985.25;5099442;27;45260;-78
2022/06/30 01:00:26;;;;;;;;;1.00;1.00;;;;;21.13;85.86;100977.19;5099343;27;45279;-79
2022/06/30 01:02:52;;;;;;;;;3.00;3.00;;;;;21.13;86.08;100971.81;5081962;27;45493;-78
2022/06/30 01:05:20;;;;;;;;;3.00;2.00;;;;;21.13;85.90;100978.06;5080790;27;48626;-77
2022/06/30 01:07:46;;;;;;;;;2.00;2.00;;;;;21.12;86.26;100972.75;5064135;27;45314;-78
2022/06/30 01:12:55;;;;;;;;;8.33;3.33;;;;;21.10;86.69;100974.63;5099390;27;45268;-78
2022/06/30 01:15:21;;;;;;;;;3.00;2.00;;;;;21.07;87.47;100966.63;5080795;27;45408;-78
2022/06/30 01:17:50;;;;;;;;;4.67;1.00;;;;;21.02;87.47;100960.53;5080822;27;45331;-78
2022/06/30 01:20:17;;;;;;;;;2.00;1.00;;;;;20.97;88.28;100963.34;5092910;27;46456;-78
2022/06/30 01:22:42;;;;;;;;;3.00;1.67;;;;;20.95;88.26;100969.69;5077705;27;45296;-78
2022/06/30 01:25:09;;;;;;;;;3.00;2.00;;;;;20.92;88.30;100984.94;5098823;27;46468;-77
2022/06/30 01:27:35;;;;;;;;;2.00;0.33;;;;;20.89;88.11;100973.44;5081164;27;45368;-78
2022/06/30 01:30:01;;;;;;;;;1.67;1.00;;;;;20.89;87.50;100973.44;5099040;27;45348;-78
2022/06/30 01:32:29;;;;;;;;;1.00;1.00;;;;;20.89;88.24;100968.06;5098943;27;45490;-78
2022/06/30 01:34:55;;;;;;;;;1.00;1.00;;;;;20.90;87.84;100970.69;5099116;27;45875;-77
2022/06/30 01:37:20;;;;;;;;;3.00;2.00;;;;;20.89;88.88;100985.06;5099025;27;45239;-76
2022/06/30 01:39:46;;;;;;;;;1.33;1.33;;;;;20.86;90.24;100974.41;5099229;27;45277;-77
2022/06/30 01:42:12;;;;;;;;;2.00;2.00;;;;;20.85;88.56;100969.09;5098611;27;55363;-79
2022/06/30 01:44:37;;;;;;;;;2.00;2.00;;;;;20.81;89.37;100962.03;5098981;27;45593;-79
2022/06/30 01:47:03;;;;;;;;;1.00;1.00;;;;;20.74;89.16;100977.44;5097759;27;53613;-77
2022/06/30 01:49:28;;;;;;;;;1.00;1.00;;;;;20.68;89.73;100985.69;5098802;27;45417;-79
2022/06/30 01:51:54;;;;;;;;;2.00;1.00;;;;;20.60;89.57;100979.63;5098901;27;45419;-78
2022/06/30 01:54:20;;;;;;;;;1.00;1.00;;;;;20.54;90.52;100983.38;5098268;27;53066;-76
2022/06/30 01:56:45;;;;;;;;;3.00;1.67;;;;;20.49;90.67;100992.47;5089980;27;45307;-77
2022/06/30 01:59:11;;;;;;;;;3.00;0.67;;;;;20.46;90.18;101004.16;5098782;27;45507;-78
2022/06/30 02:01:36;;;;;;;;;2.33;1.00;;;;;20.42;90.82;100999.78;5097633;27;54667;-78
2022/06/30 02:06:46;;;;;;;;;2.00;2.00;;;;;20.35;92.13;101009.78;5098384;27;45433;-78
2022/06/30 02:09:12;;;;;;;;;1.33;1.33;;;;;20.33;92.14;100997.31;5098690;27;45330;-79
2022/06/30 02:11:37;;;;;;;;;2.00;2.00;;;;;20.32;92.26;100987.53;5098816;27;45505;-77
2022/06/30 02:14:03;;;;;;;;;1.00;1.00;;;;;20.33;91.99;100984.78;5098263;27;46205;-77
2022/06/30 02:16:28;;;;;;;;;1.00;1.00;;;;;20.31;92.88;100981.28;5098327;27;45434;-77
2022/06/30 02:18:53;;;;;;;;;1.67;1.67;;;;;20.32;92.87;100969.63;5097106;27;63093;-76
2022/06/30 02:21:19;;;;;;;;;1.67;1.67;;;;;20.32;94.11;100966.94;5072728;27;55895;-78
2022/06/30 02:23:44;;;;;;;;;5.33;2.00;;;;;20.33;93.14;100952.63;5079485;27;67230;-79
2022/06/30 02:26:10;;;;;;;;;1.67;1.33;;;;;20.33;93.30;100951.72;5098584;27;45300;-77
2022/06/30 02:28:35;;;;;;;;;2.00;2.00;;;;;20.30;93.02;100955.41;5080117;27;45332;-77
2022/06/30 02:31:00;;;;;;;;;0.67;0.67;;;;;20.42;92.27;100957.72;5097185;27;59664;-79
2022/06/30 02:33:26;;;;;;;;;2.33;1.00;;;;;20.46;92.53;100955.88;5097303;27;67888;-77
2022/06/30 02:35:51;;;;;;;;;2.67;1.00;;;;;20.50;92.50;100972.75;5097250;27;66309;-77
2022/06/30 02:38:16;;;;;;;;;3.00;2.00;;;;;20.50;92.37;100970.94;5098077;27;45379;-77
2022/06/30 02:40:42;;;;;;;;;3.67;1.00;;;;;20.50;91.84;100954.84;5098405;27;45183;-76
2022/06/30 02:43:07;;;;;;;;;5.00;2.00;;;;;20.49;92.41;100965.63;5098244;27;46666;-77
2022/06/30 02:45:32;;;;;;;;;2.00;1.67;;;;;20.49;92.10;100968.31;5079246;27;46548;-78
2022/06/30 02:47:59;;;;;;;;;2.33;2.33;;;;;20.46;92.12;100963.03;5097729;27;50391;-79
2022/06/30 02:50:24;;;;;;;;;3.00;1.67;;;;;20.47;92.13;100956.75;5097829;27;45580;-78
2022/06/30 02:52:49;;;;;;;;;3.00;1.67;;;;;20.48;92.46;100961.19;5097980;27;45475;-79
2022/06/30 02:55:15;;;;;;;;;3.33;2.00;;;;;20.46;92.26;100963.94;5097233;27;45422;-79
2022/06/30 02:57:41;;;;;;;;;1.67;1.67;;;;;20.46;92.77;100977.34;5097975;27;45328;-78
2022/06/30 03:00:09;;;;;;;;;5.00;1.67;;;;;20.40;92.06;100972.13;5096984;27;61996;-79
2022/06/30 03:02:34;;;;;;;;;1.67;1.67;;;;;20.38;92.13;100992.72;5097512;27;47333;-77
2022/06/30 03:05:00;;;;;;;;;2.00;2.00;;;;;20.39;92.39;100973.91;5079271;27;45662;-77
2022/06/30 03:07:26;;;;;;;;;2.33;2.33;;;;;20.40;92.15;100985.53;5097800;27;45250;-78
2022/06/30 03:09:51;;;;;;;;;4.00;2.33;;;;;20.38;92.26;100980.19;5096199;27;55629;-78
2022/06/30 03:12:16;;;;;;;;;2.67;1.67;;;;;20.40;92.06;100990.91;5097532;27;46560;-77
2022/06/30 03:14:42;;;;;;;;;4.00;1.00;;;;;20.37;92.50;100996.31;5097318;27;45740;-79
2022/06/30 03:17:07;;;;;;;;;3.67;1.67;;;;;20.34;91.85;100986.53;5079426;27;45535;-78
2022/06/30 03:19:33;;;;;;;;;5.00;2.67;;;;;20.33;92.39;100986.59;5097307;27;45532;-79
2022/06/30 03:21:58;;;;;;;;;1.67;1.67;;;;;20.30;92.09;100979.53;5097671;27;45793;-77
2022/06/30 03:24:23;;;;;;;;;3.00;3.00;;;;;20.30;92.08;100990.25;5096732;27;68327;-79
2022/06/30 03:26:50;;;;;;;;;2.00;2.00;;;;;20.31;92.58;100994.69;5096971;27;59464;-78
2022/06/30 03:29:15;;;;;;;;;3.00;1.00;;;;;20.32;92.65;101001.81;5097236;27;45274;-78
2022/06/30 03:31:41;;;;;;;;;3.00;1.00;;;;;20.33;92.08;100994.66;5096743;27;46869;-78
2022/06/30 03:34:06;;;;;;;;;3.00;1.67;;;;;20.32;92.46;100993.75;5096489;27;68477;-78
2022/06/30 03:36:31;;;;;;;;;2.67;2.67;;;;;20.30;92.63;100994.75;5096840;27;58571;-78
2022/06/30 03:38:57;;;;;;;;;3.00;3.00;;;;;20.28;92.36;100976.00;5097106;27;51564;-79
2022/06/30 03:41:22;;;;;;;;;5.00;1.67;;;;;20.27;92.15;100971.56;5096419;27;63606;-80
2022/06/30 03:43:47;;;;;;;;;1.67;1.67;;;;;20.29;92.54;100972.38;5096663;27;46586;-78
2022/06/30 03:46:13;;;;;;;;;3.33;2.00;;;;;20.30;92.27;100987.56;5077657;27;45256;-78
2022/06/30 03:48:41;;;;;;;;;3.67;2.00;;;;;20.34;92.63;100991.03;5092032;27;45523;-78
2022/06/30 03:51:06;;;;;;;;;2.00;2.00;;;;;20.37;92.65;100997.19;5076067;27;47688;-78
2022/06/30 03:53:32;;;;;;;;;3.00;2.33;;;;;20.35;93.23;100996.38;5097132;27;45295;-78
2022/06/30 03:55:57;;;;;;;;;3.00;2.00;;;;;20.30;92.67;101000.97;5096333;27;50484;-78
2022/06/30 03:58:23;;;;;;;;;5.00;2.00;;;;;20.29;93.34;101001.88;5097382;27;45592;-79
2022/06/30 04:00:48;;;;;;;;;1.67;1.67;;;;;20.21;93.58;101009.25;5096526;27;46278;-79
2022/06/30 04:03:13;;;;;;;;;5.00;2.00;;;;;20.14;93.78;101023.75;5096540;27;62537;-80
2022/06/30 04:05:40;;;;;;;;;0.67;0.67;;;;;20.11;93.41;101016.66;5095871;27;61947;-79
2022/06/30 04:08:07;;;;;;;;;3.67;2.00;;;;;20.11;93.62;101030.06;5097126;27;45450;-80
2022/06/30 04:10:32;;;;;;;;;2.67;2.33;;;;;20.11;93.73;101032.75;5096762;27;46291;-78
2022/06/30 04:12:57;;;;;;;;;4.67;3.00;;;;;20.07;93.75;101017.63;5078616;27;45442;-80
2022/06/30 04:15:23;;;;;;;;;3.67;2.67;;;;;20.03;94.14;101009.75;5096825;27;45288;-78
2022/06/30 04:17:48;;;;;;;;;3.33;2.00;;;;;20.00;94.51;101021.41;5096136;27;63212;-80
2022/06/30 04:20:16;;;;;;;;;4.33;2.00;;;;;20.00;94.90;101012.50;5090050;27;68895;-78
2022/06/30 04:22:43;;;;;;;;;4.00;3.00;;;;;20.00;95.25;100997.28;5080381;27;46336;-80
2022/06/30 04:25:09;;;;;;;;;1.67;1.67;;;;;20.02;96.65;101005.28;5081647;27;45335;-79
2022/06/30 04:27:34;;;;;;;;;4.33;2.00;;;;;19.99;96.54;100997.34;5100123;27;45512;-81
2022/06/30 04:30:00;;;;;;;;;3.67;2.67;;;;;19.98;97.44;100988.41;5098954;27;66561;-80
2022/06/30 04:32:40;;;;;;;;;4.67;3.00;;;;;19.96;97.32;100994.72;5099376;27;65966;-77
2022/06/30 04:35:12;;;;;;;;;3.33;1.67;;;;;19.98;98.06;101007.19;5099967;27;45255;-80
2022/06/30 04:37:38;;;;;;;;;1.00;1.00;;;;;19.98;98.35;101012.53;5100181;27;45284;-78
2022/06/30 04:42:49;;;;;;;;;3.00;2.33;;;;;19.94;99.36;101026.94;5084712;27;45236;-81
2022/06/30 04:45:14;;;;;;;;;4.00;2.33;;;;;19.93;99.76;101019.81;5081584;27;45444;-81
2022/06/30 04:47:41;;;;;;;;;5.33;2.67;;;;;19.93;100.00;101010.88;5099511;27;45532;-80
2022/06/30 04:50:07;;;;;;;;;3.33;2.33;;;;;19.92;100.00;101012.69;5092671;27;45851;-79
2022/06/30 04:52:33;;;;;;;;;3.67;3.00;;;;;19.93;100.00;101017.13;5077253;28;45467;-79
2022/06/30 04:54:58;;;;;;;;;2.67;2.33;;;;;19.91;100.00;101005.53;5074484;27;45336;-78
2022/06/30 04:57:23;;;;;;;;;4.00;3.00;;;;;19.88;100.00;101001.16;5072891;27;53203;-78
2022/06/30 04:59:49;;;;;;;;;5.00;2.67;;;;;19.86;100.00;101000.28;5099461;27;46491;-78
2022/06/30 05:02:14;;;;;;;;;3.67;3.67;;;;;19.87;100.00;101007.44;5080608;27;64305;-77
2022/06/30 05:04:39;;;;;;;;;1.67;1.67;;;;;19.82;100.00;100993.28;5080713;27;59870;-78
2022/06/30 05:07:05;;;;;;;;;3.67;2.33;;;;;19.78;100.00;100988.91;5098901;27;45553;-79
2022/06/30 05:09:30;;;;;;;;;5.00;4.00;;;;;19.77;100.00;100987.16;5080179;27;65865;-80
2022/06/30 05:11:56;;;;;;;;;3.00;2.33;;;;;19.77;100.00;100987.16;5059836;28;68691;-80
2022/06/30 05:14:22;;;;;;;;;3.00;2.00;;;;;19.77;100.00;100988.94;5064288;27;45412;-80
2022/06/30 05:16:47;;;;;;;;;4.00;3.00;;;;;19.77;100.00;100984.47;5091408;27;45510;-79
2022/06/30 05:19:12;;;;;;;;;2.67;2.67;;;;;19.79;100.00;100981.75;5059955;27;66834;-79
2022/06/30 05:21:38;;;;;;;;;4.33;2.00;;;;;19.79;100.00;100985.28;5078660;27;45273;-79
2022/06/30 05:26:47;;;;;;;;;4.00;2.67;;;;;19.85;100.00;100978.91;5083922;27;45497;-79
2022/06/30 05:29:12;;;;;;;;;5.00;2.33;;;;;19.87;100.00;100977.97;5079812;27;69297;-79
2022/06/30 05:31:38;;;;;;;;;2.67;2.67;;;;;19.90;100.00;100987.72;5097471;27;59255;-79
2022/06/30 05:34:03;;;;;;;;;3.33;3.33;;;;;19.95;100.00;101001.00;5080839;27;45460;-79
2022/06/30 05:36:28;;;;;;;;;3.33;1.33;;;;;19.95;100.00;101007.25;5059753;28;59915;-79
2022/06/30 05:38:54;;;;;;;;;4.67;2.33;;;;;19.98;100.00;101006.31;5075315;27;64662;-79
2022/06/30 05:41:19;;;;;;;;;4.33;2.33;;;;;20.01;100.00;101001.72;5079772;27;59781;-79
2022/06/30 05:43:45;;;;;;;;;2.67;2.67;;;;;19.99;100.00;100998.22;5078524;27;58423;-74
2022/06/30 05:46:10;;;;;;;;;2.33;2.33;;;;;19.95;100.00;101003.69;5096751;27;45640;-73
2022/06/30 05:48:36;;;;;;;;;1.00;1.00;;;;;19.86;100.00;101005.66;5097228;27;67062;-72
2022/06/30 05:51:01;;;;;;;;;2.33;2.33;;;;;19.79;100.00;101013.91;5095489;27;65624;-72
2022/06/30 05:53:26;;;;;;;;;5.00;3.33;;;;;19.68;100.00;101011.47;5095563;27;58582;-74
2022/06/30 05:55:52;;;;;;;;;3.00;3.00;;;;;19.58;100.00;101015.25;5096221;27;45517;-73
2022/06/30 05:58:18;;;;;;;;;3.00;3.00;;;;;19.51;100.00;101010.97;5096963;27;63141;-74
2022/06/30 06:00:43;;;;;;;;;4.00;2.33;;;;;19.47;100.00;101017.28;5097049;27;45434;-74
2022/06/30 06:03:09;;;;;;;;;5.00;3.00;;;;;19.43;100.00;101015.59;5093123;27;46198;-76
2022/06/30 06:05:34;;;;;;;;;6.67;4.33;;;;;19.35;100.00;101011.31;5189059;22;45651;-74
2022/06/30 06:08:07;;;;;;;;;3.33;3.00;;;;;19.29;100.00;101022.16;5056888;28;61947;-75
2022/06/30 06:10:32;;;;;;;;;7.00;4.00;;;;;19.28;100.00;101016.81;5058850;28;45436;-74
2022/06/30 06:12:57;;;;;;;;;7.00;2.33;;;;;19.27;100.00;101015.94;5064007;28;45470;-75
2022/06/30 06:15:23;;;;;;;;;5.67;4.00;;;;;19.25;100.00;101009.75;5055555;28;61446;-75
2022/06/30 06:17:48;;;;;;;;;5.00;4.00;;;;;19.29;100.00;101013.25;5057400;28;46346;-74
2022/06/30 06:20:15;;;;;;;;;7.00;4.00;;;;;19.32;100.00;101023.88;5053911;28;52019;-75
2022/06/30 06:22:41;;;;;;;;;5.33;4.00;;;;;19.32;100.00;101026.53;5063335;28;45500;-75
2022/06/30 06:25:07;;;;;;;;;4.67;3.67;;;;;19.31;100.00;101017.63;5054533;28;45506;-74
2022/06/30 06:27:34;;;;;;;;;5.00;3.33;;;;;19.29;100.00;101015.91;5061856;28;47704;-79
2022/06/30 06:30:00;;;;;;;;;7.00;3.00;;;;;19.33;100.00;101013.16;5066367;28;45462;-78
2022/06/30 06:32:25;;;;;;;;;3.00;3.00;;;;;19.38;100.00;101013.88;5054101;28;45671;-78
2022/06/30 06:34:50;;;;;;;;;4.00;3.00;;;;;19.49;100.00;101015.44;5054531;28;45582;-79
2022/06/30 06:37:16;;;;;;;;;5.00;2.67;;;;;19.57;100.00;101017.03;5054761;28;46534;-78
2022/06/30 06:39:41;;;;;;;;;3.00;2.33;;;;;19.63;100.00;101019.63;5056004;28;63393;-78
2022/06/30 06:42:06;;;;;;;;;3.33;2.33;;;;;19.70;100.00;101031.06;5056754;28;60953;-78
2022/06/30 06:44:32;;;;;;;;;3.33;2.33;;;;;19.75;100.00;101031.84;5056406;28;45182;-79
2022/06/30 06:46:57;;;;;;;;;3.67;3.00;;;;;19.80;100.00;101031.72;5056596;28;46394;-78
2022/06/30 06:49:22;;;;;;;;;3.67;3.67;;;;;19.82;100.00;101038.81;5057021;28;45234;-79
2022/06/30 06:51:48;;;;;;;;;4.33;3.33;;;;;19.84;100.00;101039.66;5055915;28;51358;-78
2022/06/30 06:54:13;;;;;;;;;5.67;3.00;;;;;19.84;100.00;101044.13;5057488;28;45568;-78
2022/06/30 06:56:38;;;;;;;;;2.33;1.67;;;;;19.88;100.00;101040.47;5057052;28;46178;-78
2022/06/30 06:59:04;;;;;;;;;5.67;2.67;;;;;19.93;100.00;101043.94;5056360;28;64605;-78
2022/06/30 07:01:29;;;;;;;;;6.67;2.67;;;;;19.98;100.00;101052.75;5056990;28;45183;-79
2022/06/30 07:03:55;;;;;;;;;2.00;2.00;;;;;20.03;100.00;101064.22;5057425;28;45642;-78
2022/06/30 07:06:21;;;;;;;;;2.67;2.67;;;;;20.08;100.00;101074.81;5056807;28;46577;-79
2022/06/30 07:08:46;;;;;;;;;4.67;4.67;;;;;20.09;100.00;101072.13;5056754;28;45408;-79
2022/06/30 07:11:12;;;;;;;;;6.00;4.00;;;;;20.10;100.00;101073.88;5057272;28;45305;-78
2022/06/30 07:13:37;;;;;;;;;5.00;4.00;;;;;20.09;100.00;101081.97;5059933;28;45304;-78
2022/06/30 07:16:03;;;;;;;;;3.00;3.00;;;;;20.05;100.00;101085.63;5067415;28;46589;-78
2022/06/30 07:18:28;;;;;;;;;8.00;4.00;;;;;20.04;100.00;101084.75;5057101;28;45250;-78
2022/06/30 07:20:54;;;;;;;;;8.67;3.00;;;;;20.02;100.00;101080.34;5056526;28;58655;-78
2022/06/30 07:23:19;;;;;;;;;5.67;5.00;;;;;20.02;100.00;101077.66;5056259;28;65403;-78
2022/06/30 07:25:45;;;;;;;;;5.00;4.00;;;;;19.96;100.00;101072.44;5056899;28;46843;-78
2022/06/30 07:28:10;;;;;;;;;5.00;4.00;;;;;19.95;100.00;101070.69;5057094;28;45316;-78
2022/06/30 07:30:36;;;;;;;;;3.67;3.67;;;;;19.96;100.00;101073.31;5056324;28;49277;-78
2022/06/30 07:33:01;;;;;;;;;3.00;3.00;;;;;19.94;100.00;101075.16;5057103;28;45446;-78
2022/06/30 07:35:26;;;;;;;;;3.00;3.00;;;;;19.91;100.00;101069.00;5055916;28;46116;-77
2022/06/30 07:37:52;;;;;;;;;3.00;2.67;;;;;19.88;100.00;101081.56;5056455;28;45380;-78
2022/06/30 07:40:17;;;;;;;;;5.00;4.33;;;;;19.84;100.00;101082.53;5056094;28;59551;-79
2022/06/30 07:42:42;;;;;;;;;3.33;3.33;;;;;19.82;100.00;101067.44;5056997;28;45420;-79
2022/06/30 07:45:08;;;;;;;;;5.00;3.33;;;;;19.81;100.00;101068.31;5056570;28;47443;-76
2022/06/30 07:47:34;;;;;;;;;5.33;3.67;;;;;19.83;100.00;101058.47;5056485;28;45213;-75
2022/06/30 07:50:00;;;;;;;;;8.00;4.33;;;;;19.86;100.00;101069.09;5056710;28;45320;-77
2022/06/30 07:52:25;;;;;;;;;4.67;3.67;;;;;19.85;100.00;101064.66;5059014;28;45561;-76
2022/06/30 07:54:51;;;;;;;;;9.33;4.33;;;;;19.82;100.00;101068.31;5057180;28;57250;-77
2022/06/30 07:57:20;;;;;;;;;4.33;4.33;;;;;19.78;100.00;101077.31;5059911;28;45450;-76
2022/06/30 07:59:45;;;;;;;;;5.33;5.33;;;;;19.73;100.00;101084.59;5059980;28;45360;-77
2022/06/30 08:02:11;;;;;;;;;5.33;4.33;;;;;19.67;100.00;101079.38;5060358;28;45413;-77
2022/06/30 08:04:37;;;;;;;;;4.67;4.67;;;;;19.62;100.00;101070.56;5060793;28;47550;-78
2022/06/30 08:07:03;;;;;;;;;3.67;3.67;;;;;19.60;100.00;101072.38;5072118;28;45338;-75
2022/06/30 08:09:29;;;;;;;;;7.67;4.00;;;;;19.56;100.00;101068.84;5061354;28;45316;-79
2022/06/30 08:11:54;;;;;;;;;4.33;3.00;;;;;19.53;100.00;101062.69;5060018;28;45450;-78
2022/06/30 08:14:21;;;;;;;;;5.67;4.00;;;;;19.50;100.00;101058.28;5059665;28;46455;-77
2022/06/30 08:16:46;;;;;;;;;6.33;4.67;;;;;19.54;100.00;101059.06;5059552;28;45389;-77
2022/06/30 08:19:12;;;;;;;;;7.33;4.33;;;;;19.52;100.00;101055.56;5059812;28;45315;-78
2022/06/30 08:21:37;;;;;;;;;6.67;3.00;;;;;19.55;100.00;101066.22;5059641;28;45524;-78
2022/06/30 08:24:03;;;;;;;;;6.67;5.00;;;;;19.55;100.00;101059.06;5058906;28;66917;-77
2022/06/30 08:26:28;;;;;;;;;2.00;2.00;;;;;19.51;100.00;101067.19;5059775;28;45304;-78
2022/06/30 08:28:53;;;;;;;;;3.67;3.33;;;;;19.50;100.00;101074.34;5059472;28;45266;-78
2022/06/30 08:31:19;;;;;;;;;5.67;4.00;;;;;19.50;100.00;101066.31;5059468;28;45471;-76
2022/06/30 08:33:44;;;;;;;;;5.33;3.67;;;;;19.49;100.00;101052.94;5056150;28;47500;-77
2022/06/30 08:36:09;;;;;;;;;3.00;3.00;;;;;19.47;100.00;101046.75;5056963;28;45432;-77
2022/06/30 08:38:35;;;;;;;;;2.33;2.33;;;;;19.46;100.00;101051.22;5057620;28;49660;-77
2022/06/30 08:43:45;;;;;;;;;3.67;3.67;;;;;19.47;100.00;101049.44;5046065;28;45710;-78
2022/06/30 08:46:12;;;;;;;;;5.33;4.00;;;;;19.52;100.00;101058.25;5059296;28;45314;-78
2022/06/30 08:48:37;;;;;;;;;3.67;2.33;;;;;19.55;100.00;101053.72;5056703;28;45510;-77
2022/06/30 08:51:05;;;;;;;;;3.33;2.00;;;;;19.58;100.00;101048.25;5059007;28;45395;-78
2022/06/30 08:53:40;;;;;;;;;2.00;2.00;;;;;19.68;100.00;101050.78;5055074;28;46727;-78
2022/06/30 08:56:06;;;;;;;;;2.00;2.00;;;;;20.09;100.00;101045.31;5059060;28;45294;-78
2022/06/30 08:58:32;;;;;;;;;5.00;2.67;;;;;19.93;100.00;101035.00;5059404;28;45290;-76
2022/06/30 09:00:57;;;;;;;;;3.00;2.00;;;;;19.93;100.00;101033.22;5058543;28;50004;-78
2022/06/30 09:03:23;;;;;;;;;2.00;2.00;;;;;19.88;100.00;101017.25;5056604;28;46806;-77
2022/06/30 09:05:48;;;;;;;;;3.00;3.00;;;;;19.82;100.00;101024.56;5069390;28;45373;-77
2022/06/30 09:08:14;;;;;;;;;3.00;3.00;;;;;19.76;100.00;101020.22;5061540;28;45536;-77
2022/06/30 09:10:50;;;;;;;;;2.67;1.33;;;;;19.73;100.00;101014.91;5059082;28;45488;-77
2022/06/30 09:13:15;;;;;;;;;2.67;2.67;;;;;19.67;100.00;101014.19;5058625;28;46531;-77
2022/06/30 09:15:40;;;;;;;;;4.00;3.00;;;;;19.65;100.00;101016.00;5057766;28;45441;-77
2022/06/30 09:18:06;;;;;;;;;4.00;4.00;;;;;19.60;100.00;101009.00;5058099;28;51814;-77
2022/06/30 09:20:39;;;;;;;;;2.00;2.00;;;;;19.62;100.00;101012.50;5038531;28;45559;-77
2022/06/30 09:23:28;;;;;;;;;2.33;2.33;;;;;19.62;100.00;101022.34;5058243;28;47506;-77
2022/06/30 09:25:56;;;;;;;;;3.33;2.33;;;;;19.61;100.00;101021.47;5058578;28;45175;-77
2022/06/30 09:28:43;;;;;;;;;3.33;2.67;;;;;19.65;100.00;101032.97;5058623;28;45318;-77
2022/06/30 09:31:14;;;;;;;;;4.67;3.33;;;;;19.65;100.00;101032.97;5058313;28;45467;-77
2022/06/30 09:33:41;;;;;;;;;2.67;2.67;;;;;19.63;100.00;101045.53;5058510;28;47585;-77
2022/06/30 09:36:27;;;;;;;;;2.33;2.33;;;;;19.62;100.00;101046.44;5058219;28;45392;-77
2022/06/30 09:39:00;;;;;;;;;2.00;2.00;;;;;19.63;100.00;101053.56;5058348;28;45325;-77
2022/06/30 09:41:30;;;;;;;;;2.33;2.33;;;;;19.64;100.00;101055.31;5058569;28;45233;-77
2022/06/30 09:43:56;;;;;;;;;5.00;2.00;;;;;19.65;100.00;101061.56;5058176;28;47008;-77
2022/06/30 09:46:21;;;;;;;;;3.67;1.33;;;;;19.65;100.00;101058.88;5058224;28;45249;-77
2022/06/30 09:48:47;;;;;;;;;2.67;2.33;;;;;19.65;100.00;101053.50;5057736;28;45452;-77
2022/06/30 09:51:12;;;;;;;;;1.33;1.33;;;;;19.65;100.00;101045.47;5057707;28;63264;-77
2022/06/30 09:53:38;;;;;;;;;1.33;1.33;;;;;19.62;100.00;101049.13;5058083;28;47336;-76
2022/06/30 09:56:14;;;;;;;;;2.33;2.33;;;;;19.59;100.00;101050.06;5057264;28;66381;-77
2022/06/30 09:58:43;;;;;;;;;6.00;3.00;;;;;19.58;100.00;101061.66;5044811;28;45257;-76
2022/06/30 10:01:10;;;;;;;;;3.33;2.33;;;;;19.56;100.00;101063.50;5058001;28;45527;-78
2022/06/30 10:03:47;;;;;;;;;1.67;1.67;;;;;19.54;100.00;101059.06;5058083;28;47609;-77
2022/06/30 10:06:14;;;;;;;;;3.67;2.00;;;;;19.54;100.00;101059.06;5071363;28;45459;-77
2022/06/30 10:08:39;;;;;;;;;2.00;2.00;;;;;19.50;100.00;101055.63;5059971;28;45510;-78
2022/06/30 10:11:06;;;;;;;;;1.67;1.67;;;;;19.45;100.00;101062.00;5057264;28;55625;-77
2022/06/30 10:13:40;;;;;;;;;1.67;1.67;;;;;19.39;100.00;101060.31;5057089;28;46418;-77
2022/06/30 10:16:07;;;;;;;;;2.00;1.33;;;;;19.36;100.00;101068.41;5057416;28;45293;-79
2022/06/30 10:18:36;;;;;;;;;7.67;3.00;;;;;19.32;100.00;101064.91;5057922;28;45259;-78
2022/06/30 10:21:02;;;;;;;;;2.67;2.67;;;;;19.38;100.00;101064.78;5057667;28;45636;-78
2022/06/30 10:23:28;;;;;;;;;1.33;1.33;;;;;19.40;100.00;101072.78;5057689;28;46570;-78
2022/06/30 10:25:55;;;;;;;;;6.33;5.33;;;;;19.42;100.00;101087.03;5057704;28;45195;-77
2022/06/30 10:28:27;;;;;;;;;4.67;3.33;;;;;19.38;100.00;101080.84;5057980;28;45285;-78
2022/06/30 10:31:07;;;;;;;;;4.33;3.00;;;;;19.31;100.00;101084.56;5057368;28;45357;-78
2022/06/30 10:33:44;;;;;;;;;4.67;2.67;;;;;19.30;100.00;101087.28;5048498;28;47325;-78
2022/06/30 10:36:35;;;;;;;;;3.67;3.67;;;;;19.25;100.00;101098.09;5057454;28;45498;-78
2022/06/30 10:39:09;;;;;;;;;3.33;3.00;;;;;19.19;100.00;101098.22;5018583;28;45410;-79
2022/06/30 10:41:43;;;;;;;;;7.00;5.00;;;;;19.19;100.00;101098.22;5031840;28;45520;-77
2022/06/30 10:44:12;;;;;;;;;5.67;4.00;;;;;19.19;100.00;101097.34;5057310;28;47446;-77
2022/06/30 10:46:44;;;;;;;;;4.67;4.67;;;;;19.20;100.00;101105.31;5057204;28;45325;-78
2022/06/30 10:49:12;;;;;;;;;6.00;5.67;;;;;19.25;100.00;101102.56;5056946;28;45331;-78
2022/06/30 10:51:38;;;;;;;;;5.33;5.00;;;;;19.30;100.00;101096.19;5057569;28;45348;-79
2022/06/30 10:54:04;;;;;;;;;7.67;4.67;;;;;19.33;100.00;101101.50;5057117;28;47227;-78
2022/06/30 10:56:48;;;;;;;;;3.67;2.67;;;;;19.43;100.00;101106.66;5056719;28;45588;-79
2022/06/30 10:59:13;;;;;;;;;5.33;4.00;;;;;19.46;100.00;101119.97;5057624;28;45475;-77
2022/06/30 11:01:40;;;;;;;;;3.33;3.33;;;;;19.50;100.00;101132.41;5056349;28;57589;-78
2022/06/30 11:04:07;;;;;;;;;5.00;5.00;;;;;19.53;100.00;101133.19;5038966;28;46514;-77
2022/06/30 11:07:01;;;;;;;;;4.67;4.67;;;;;19.60;100.00;101129.53;5061663;28;45405;-78
2022/06/30 11:09:44;;;;;;;;;9.00;5.00;;;;;19.71;100.00;101128.38;5059084;28;45442;-78
2022/06/30 11:12:43;;;;;;;;;1.33;1.33;;;;;19.80;100.00;101128.19;5057597;28;45307;-77
2022/06/30 11:15:10;;;;;;;;;3.00;3.00;;;;;19.83;100.00;101118.28;5055966;28;46532;-78
2022/06/30 11:17:39;;;;;;;;;3.67;2.33;;;;;19.79;100.00;101118.41;5056870;28;45365;-77
2022/06/30 11:20:12;;;;;;;;;4.33;2.67;;;;;19.79;100.00;101113.03;5057069;28;45447;-78
2022/06/30 11:22:38;;;;;;;;;3.00;3.00;;;;;19.79;100.00;101111.22;5054432;28;45488;-78
2022/06/30 11:25:09;;;;;;;;;4.33;4.00;;;;;19.83;100.00;101117.41;5053114;28;47493;-77
2022/06/30 11:27:36;;;;;;;;;4.00;2.33;;;;;19.86;100.00;101120.00;5056088;28;45436;-78
2022/06/30 11:30:10;;;;;;;;;3.67;2.33;;;;;19.88;100.00;101116.41;5057708;28;45422;-78
2022/06/30 11:32:36;;;;;;;;;3.00;3.00;;;;;19.92;100.00;101105.59;5056519;28;45418;-80